createdAt,value
2019-01-27T00:00:40.355Z,985.72
2019-01-27T00:01:40.316Z,985.75
2019-01-27T00:02:40.277Z,985.72
2019-01-27T00:03:40.245Z,985.70
2019-01-27T00:04:40.211Z,985.67
2019-01-27T00:05:40.167Z,985.66
2019-01-27T00:06:40.135Z,985.62
2019-01-27T00:07:40.096Z,985.66
2019-01-27T00:08:40.066Z,985.67
2019-01-27T00:09:40.023Z,985.66
2019-01-27T00:10:39.988Z,985.66
2019-01-27T00:11:39.956Z,985.66
2019-01-27T00:12:39.918Z,985.63
2019-01-27T00:13:39.886Z,985.64
2019-01-27T00:14:39.843Z,985.58
2019-01-27T00:15:39.811Z,985.57
2019-01-27T00:16:39.801Z,985.53
2019-01-27T00:17:48.381Z,985.48
2019-01-27T00:19:44.148Z,985.42
2019-01-27T00:20:44.090Z,985.42
2019-01-27T00:21:44.061Z,985.34
2019-01-27T00:22:44.012Z,985.33
2019-01-27T00:23:43.968Z,985.31
2019-01-27T00:24:43.962Z,985.25
2019-01-27T00:25:43.906Z,985.20
2019-01-27T00:26:43.876Z,985.16
2019-01-27T00:27:43.823Z,985.17
2019-01-27T00:28:43.792Z,985.15
2019-01-27T00:29:43.752Z,985.11
2019-01-27T00:30:43.722Z,985.11
2019-01-27T00:31:43.691Z,985.05
2019-01-27T00:32:43.656Z,985.01
2019-01-27T00:33:43.611Z,985.02
2019-01-27T00:34:43.579Z,985.04
2019-01-27T00:35:43.549Z,984.96
2019-01-27T00:36:43.506Z,984.95
2019-01-27T00:37:43.476Z,984.94
2019-01-27T00:38:43.438Z,984.90
2019-01-27T00:39:43.404Z,984.90
2019-01-27T00:40:43.364Z,984.91
2019-01-27T00:41:43.339Z,984.87
2019-01-27T00:42:43.292Z,984.81
2019-01-27T00:43:43.253Z,984.86
2019-01-27T00:44:43.231Z,984.80
2019-01-27T00:45:43.192Z,984.77
2019-01-27T00:46:43.152Z,984.77
2019-01-27T00:47:43.123Z,984.73
2019-01-27T00:48:43.082Z,984.70
2019-01-27T00:49:43.039Z,984.67
2019-01-27T00:50:43.024Z,984.66
2019-01-27T00:51:42.984Z,984.69
2019-01-27T00:52:42.933Z,984.62
2019-01-27T00:53:42.894Z,984.59
2019-01-27T00:54:42.855Z,984.60
2019-01-27T00:55:42.829Z,984.54
2019-01-27T00:56:42.789Z,984.49
2019-01-27T00:57:42.760Z,984.50
2019-01-27T00:58:42.724Z,984.49
2019-01-27T00:59:42.688Z,984.48
2019-01-27T01:00:42.653Z,984.39
2019-01-27T01:01:42.613Z,984.38
2019-01-27T01:02:42.578Z,984.32
2019-01-27T01:03:42.540Z,984.34
2019-01-27T01:04:42.508Z,984.31
2019-01-27T01:05:42.473Z,984.28
2019-01-27T01:06:42.453Z,984.27
2019-01-27T01:07:42.393Z,984.30
2019-01-27T01:08:42.354Z,984.18
2019-01-27T01:09:42.328Z,984.20
2019-01-27T01:10:42.285Z,984.16
2019-01-27T01:11:42.255Z,984.14
2019-01-27T01:12:42.232Z,984.14
2019-01-27T01:13:42.175Z,984.11
2019-01-27T01:14:42.143Z,984.14
2019-01-27T01:15:42.105Z,984.13
2019-01-27T01:16:42.070Z,984.14
2019-01-27T01:17:42.038Z,984.12
2019-01-27T01:18:42.036Z,984.14
2019-01-27T01:19:41.960Z,984.10
2019-01-27T01:20:41.938Z,984.01
2019-01-27T01:21:41.891Z,984.04
2019-01-27T01:22:41.863Z,984.03
2019-01-27T01:23:41.823Z,984.01
2019-01-27T01:24:41.789Z,983.99
2019-01-27T01:25:41.749Z,984.01
2019-01-27T01:26:41.720Z,984.00
2019-01-27T01:27:41.684Z,983.95
2019-01-27T01:28:41.640Z,983.93
2019-01-27T01:29:41.599Z,983.86
2019-01-27T01:30:41.569Z,983.85
2019-01-27T01:31:41.535Z,983.85
2019-01-27T01:32:41.500Z,983.83
2019-01-27T01:33:41.461Z,983.80
2019-01-27T01:34:41.420Z,983.82
2019-01-27T01:35:41.394Z,983.84
2019-01-27T01:36:41.355Z,983.76
2019-01-27T01:37:41.326Z,983.77
2019-01-27T01:38:41.274Z,983.74
2019-01-27T01:39:41.246Z,983.73
2019-01-27T01:40:41.221Z,983.78
2019-01-27T01:41:41.175Z,983.74
2019-01-27T01:42:41.136Z,983.76
2019-01-27T01:43:41.111Z,983.74
2019-01-27T01:44:41.069Z,983.72
2019-01-27T01:45:41.030Z,983.68
2019-01-27T01:46:40.992Z,983.62
2019-01-27T01:47:40.954Z,983.65
2019-01-27T01:48:40.919Z,983.58
2019-01-27T01:49:40.891Z,983.57
2019-01-27T01:50:40.856Z,983.58
2019-01-27T01:51:40.822Z,983.54
2019-01-27T01:52:40.784Z,983.52
2019-01-27T01:53:40.742Z,983.45
2019-01-27T01:54:40.706Z,983.48
2019-01-27T01:55:40.661Z,983.43
2019-01-27T01:56:40.633Z,983.35
2019-01-27T01:57:40.601Z,983.34
2019-01-27T01:58:40.567Z,983.31
2019-01-27T01:59:40.535Z,983.32
2019-01-27T02:00:40.489Z,983.29
2019-01-27T02:01:40.451Z,983.32
2019-01-27T02:02:40.425Z,983.30
2019-01-27T02:03:40.397Z,983.28
2019-01-27T02:04:40.355Z,983.30
2019-01-27T02:05:40.315Z,983.24
2019-01-27T02:06:40.282Z,983.19
2019-01-27T02:07:40.236Z,983.19
2019-01-27T02:08:40.201Z,983.19
2019-01-27T02:09:40.171Z,983.14
2019-01-27T02:10:40.138Z,983.16
2019-01-27T02:11:40.097Z,983.08
2019-01-27T02:12:40.058Z,983.12
2019-01-27T02:13:40.030Z,983.09
2019-01-27T02:14:39.995Z,983.06
2019-01-27T02:15:39.957Z,983.06
2019-01-27T02:16:39.926Z,982.95
2019-01-27T02:17:39.876Z,982.95
2019-01-27T02:18:39.841Z,982.91
2019-01-27T02:19:39.806Z,982.91
2019-01-27T02:20:39.777Z,982.88
2019-01-27T02:21:39.738Z,982.81
2019-01-27T02:22:39.707Z,982.79
2019-01-27T02:23:39.662Z,982.76
2019-01-27T02:24:39.632Z,982.77
2019-01-27T02:25:39.592Z,982.74
2019-01-27T02:26:39.549Z,982.70
2019-01-27T02:27:39.524Z,982.65
2019-01-27T02:28:39.490Z,982.64
2019-01-27T02:29:39.462Z,982.65
2019-01-27T02:30:39.417Z,982.61
2019-01-27T02:31:39.382Z,982.62
2019-01-27T02:32:39.341Z,982.60
2019-01-27T02:33:39.307Z,982.55
2019-01-27T02:34:39.286Z,982.56
2019-01-27T02:35:39.233Z,982.55
2019-01-27T02:36:39.203Z,982.53
2019-01-27T02:37:39.158Z,982.47
2019-01-27T02:38:39.130Z,982.48
2019-01-27T02:39:39.131Z,982.44
2019-01-27T02:40:39.053Z,982.40
2019-01-27T02:41:39.023Z,982.39
2019-01-27T02:42:38.978Z,982.38
2019-01-27T02:43:38.947Z,982.37
2019-01-27T02:44:38.912Z,982.35
2019-01-27T02:45:38.873Z,982.35
2019-01-27T02:46:38.845Z,982.34
2019-01-27T02:47:38.810Z,982.29
2019-01-27T02:48:38.774Z,982.32
2019-01-27T02:49:38.737Z,982.30
2019-01-27T02:50:38.693Z,982.28
2019-01-27T02:51:38.658Z,982.23
2019-01-27T02:52:38.623Z,982.16
2019-01-27T02:53:38.588Z,982.19
2019-01-27T02:54:38.558Z,982.23
2019-01-27T02:55:38.519Z,982.21
2019-01-27T02:56:38.479Z,982.17
2019-01-27T02:57:38.448Z,982.17
2019-01-27T02:58:38.401Z,982.23
2019-01-27T02:59:38.379Z,982.22
2019-01-27T03:00:38.346Z,982.16
2019-01-27T03:01:38.311Z,982.14
2019-01-27T03:02:38.270Z,982.10
2019-01-27T03:03:38.240Z,982.07
2019-01-27T03:04:38.186Z,982.05
2019-01-27T03:05:38.165Z,982.02
2019-01-27T03:06:38.126Z,981.95
2019-01-27T03:07:38.091Z,982.01
2019-01-27T03:08:38.054Z,982.00
2019-01-27T03:09:38.021Z,982.00
2019-01-27T03:10:37.989Z,981.98
2019-01-27T03:11:37.939Z,981.95
2019-01-27T03:12:37.905Z,981.89
2019-01-27T03:13:37.924Z,981.88
2019-01-27T03:14:37.835Z,981.84
2019-01-27T03:15:37.810Z,981.83
2019-01-27T03:16:37.764Z,981.78
2019-01-27T03:17:37.734Z,981.76
2019-01-27T03:18:37.691Z,981.76
2019-01-27T03:19:37.659Z,981.75
2019-01-27T03:20:37.623Z,981.75
2019-01-27T03:21:37.584Z,981.70
2019-01-27T03:22:37.542Z,981.68
2019-01-27T03:23:37.515Z,981.62
2019-01-27T03:24:37.485Z,981.61
2019-01-27T03:25:37.439Z,981.59
2019-01-27T03:26:37.405Z,981.61
2019-01-27T03:27:37.369Z,981.55
2019-01-27T03:28:37.344Z,981.53
2019-01-27T03:29:37.300Z,981.50
2019-01-27T03:30:37.260Z,981.49
2019-01-27T03:31:37.230Z,981.47
2019-01-27T03:32:37.191Z,981.48
2019-01-27T03:33:37.156Z,981.44
2019-01-27T03:34:37.122Z,981.42
2019-01-27T03:35:37.082Z,981.41
2019-01-27T03:36:37.056Z,981.42
2019-01-27T03:37:37.010Z,981.38
2019-01-27T03:38:36.981Z,981.36
2019-01-27T03:39:36.940Z,981.27
2019-01-27T03:40:36.910Z,981.25
2019-01-27T03:41:36.871Z,981.20
2019-01-27T03:42:36.831Z,981.20
2019-01-27T03:43:36.807Z,981.24
2019-01-27T03:44:36.761Z,981.26
2019-01-27T03:45:36.722Z,981.23
2019-01-27T03:46:36.712Z,981.24
2019-01-27T03:47:36.657Z,981.19
2019-01-27T03:48:36.623Z,981.14
2019-01-27T03:49:36.585Z,981.13
2019-01-27T03:50:36.545Z,981.10
2019-01-27T03:51:36.510Z,981.06
2019-01-27T03:52:36.481Z,981.03
2019-01-27T03:53:36.442Z,981.00
2019-01-27T03:54:36.406Z,980.96
2019-01-27T03:55:36.370Z,980.87
2019-01-27T03:56:36.337Z,980.86
2019-01-27T03:57:36.291Z,980.86
2019-01-27T03:58:36.267Z,980.81
2019-01-27T03:59:36.226Z,980.83
2019-01-27T04:00:36.190Z,980.78
2019-01-27T04:01:36.151Z,980.76
2019-01-27T04:02:36.112Z,980.76
2019-01-27T04:03:36.087Z,980.75
2019-01-27T04:04:36.051Z,980.72
2019-01-27T04:05:36.012Z,980.67
2019-01-27T04:06:35.972Z,980.66
2019-01-27T04:07:35.933Z,980.67
2019-01-27T04:08:35.898Z,980.67
2019-01-27T04:09:35.871Z,980.69
2019-01-27T04:10:35.826Z,980.66
2019-01-27T04:11:35.787Z,980.64
2019-01-27T04:12:35.754Z,980.60
2019-01-27T04:13:35.719Z,980.62
2019-01-27T04:14:35.739Z,980.58
2019-01-27T04:15:35.641Z,980.57
2019-01-27T04:16:35.604Z,980.52
2019-01-27T04:17:35.572Z,980.52
2019-01-27T04:18:35.541Z,980.52
2019-01-27T04:19:35.507Z,980.50
2019-01-27T04:20:35.478Z,980.45
2019-01-27T04:21:35.431Z,980.40
2019-01-27T04:22:35.398Z,980.43
2019-01-27T04:23:35.357Z,980.45
2019-01-27T04:24:35.342Z,980.43
2019-01-27T04:25:35.286Z,980.42
2019-01-27T04:26:35.251Z,980.42
2019-01-27T04:27:35.209Z,980.40
2019-01-27T04:28:35.187Z,980.36
2019-01-27T04:29:35.138Z,980.39
2019-01-27T04:30:35.102Z,980.40
2019-01-27T04:31:35.076Z,980.37
2019-01-27T04:32:35.042Z,980.32
2019-01-27T04:33:35.002Z,980.32
2019-01-27T04:34:34.967Z,980.33
2019-01-27T04:35:34.930Z,980.22
2019-01-27T04:36:34.895Z,980.21
2019-01-27T04:37:34.862Z,980.17
2019-01-27T04:38:34.824Z,980.16
2019-01-27T04:39:34.788Z,980.16
2019-01-27T04:40:34.761Z,980.10
2019-01-27T04:41:34.714Z,980.08
2019-01-27T04:42:34.684Z,980.09
2019-01-27T04:43:34.635Z,980.01
2019-01-27T04:44:34.601Z,980.05
2019-01-27T04:45:34.573Z,980.00
2019-01-27T04:46:34.539Z,979.98
2019-01-27T04:47:34.489Z,979.98
2019-01-27T04:48:34.460Z,979.97
2019-01-27T04:49:34.420Z,979.95
2019-01-27T04:50:34.394Z,979.97
2019-01-27T04:51:34.354Z,979.95
2019-01-27T04:52:34.316Z,979.95
2019-01-27T04:53:34.275Z,979.93
2019-01-27T04:54:34.250Z,979.97
2019-01-27T04:55:34.215Z,979.89
2019-01-27T04:56:34.169Z,979.88
2019-01-27T04:57:34.139Z,979.88
2019-01-27T04:58:34.095Z,979.83
2019-01-27T04:59:34.063Z,979.84
2019-01-27T05:00:34.034Z,979.82
2019-01-27T05:01:33.978Z,979.81
2019-01-27T05:02:33.944Z,979.82
2019-01-27T05:03:33.927Z,979.79
2019-01-27T05:04:33.891Z,979.80
2019-01-27T05:05:33.853Z,979.73
2019-01-27T05:06:33.804Z,979.72
2019-01-27T05:07:33.768Z,979.76
2019-01-27T05:08:33.741Z,979.71
2019-01-27T05:09:33.698Z,979.70
2019-01-27T05:10:33.664Z,979.69
2019-01-27T05:11:33.629Z,979.72
2019-01-27T05:12:33.608Z,979.69
2019-01-27T05:13:33.564Z,979.69
2019-01-27T05:14:33.517Z,979.71
2019-01-27T05:15:33.489Z,979.65
2019-01-27T05:16:33.447Z,979.66
2019-01-27T05:17:33.411Z,979.69
2019-01-27T05:18:33.375Z,979.64
2019-01-27T05:19:33.334Z,979.58
2019-01-27T05:20:33.301Z,979.59
2019-01-27T05:21:34.392Z,979.59
2019-01-27T05:22:33.239Z,979.57
2019-01-27T05:23:33.192Z,979.60
2019-01-27T05:24:33.165Z,979.53
2019-01-27T05:25:33.121Z,979.56
2019-01-27T05:26:33.095Z,979.50
2019-01-27T05:27:33.051Z,979.52
2019-01-27T05:28:33.020Z,979.52
2019-01-27T05:29:32.978Z,979.51
2019-01-27T05:30:32.952Z,979.48
2019-01-27T05:31:32.904Z,979.52
2019-01-27T05:32:32.876Z,979.45
2019-01-27T05:33:32.826Z,979.46
2019-01-27T05:34:32.803Z,979.46
2019-01-27T05:35:32.762Z,979.43
2019-01-27T05:36:32.721Z,979.39
2019-01-27T05:37:32.696Z,979.43
2019-01-27T05:38:32.659Z,979.40
2019-01-27T05:39:32.612Z,979.40
2019-01-27T05:40:32.575Z,979.37
2019-01-27T05:41:32.557Z,979.37
2019-01-27T05:42:32.512Z,979.37
2019-01-27T05:43:32.477Z,979.34
2019-01-27T05:44:32.435Z,979.33
2019-01-27T05:45:32.401Z,979.34
2019-01-27T05:46:32.367Z,979.35
2019-01-27T05:47:32.341Z,979.32
2019-01-27T05:48:32.304Z,979.26
2019-01-27T05:49:32.253Z,979.26
2019-01-27T05:50:32.222Z,979.27
2019-01-27T05:51:32.185Z,979.22
2019-01-27T05:52:32.145Z,979.19
2019-01-27T05:53:32.119Z,979.19
2019-01-27T05:54:32.080Z,979.18
2019-01-27T05:55:32.051Z,979.14
2019-01-27T05:56:32.011Z,979.09
2019-01-27T05:57:31.962Z,979.11
2019-01-27T05:58:31.936Z,979.08
2019-01-27T05:59:31.901Z,979.07
2019-01-27T06:00:31.857Z,979.09
2019-01-27T06:01:31.837Z,978.98
2019-01-27T06:02:31.787Z,978.99
2019-01-27T06:03:31.753Z,979.06
2019-01-27T06:04:31.719Z,979.07
2019-01-27T06:05:31.682Z,978.98
2019-01-27T06:06:31.648Z,979.02
2019-01-27T06:07:31.628Z,979.01
2019-01-27T06:08:31.568Z,979.00
2019-01-27T06:09:31.538Z,979.00
2019-01-27T06:10:31.499Z,979.02
2019-01-27T06:11:31.458Z,979.00
2019-01-27T06:12:31.431Z,978.91
2019-01-27T06:13:31.398Z,978.94
2019-01-27T06:14:31.354Z,979.02
2019-01-27T06:15:31.319Z,978.96
2019-01-27T06:16:31.275Z,978.96
2019-01-27T06:17:31.244Z,978.97
2019-01-27T06:18:31.212Z,978.91
2019-01-27T06:19:31.177Z,978.91
2019-01-27T06:20:31.138Z,978.95
2019-01-27T06:21:31.098Z,978.94
2019-01-27T06:22:31.067Z,978.92
2019-01-27T06:23:31.034Z,978.94
2019-01-27T06:24:30.995Z,978.88
2019-01-27T06:25:30.956Z,978.92
2019-01-27T06:26:30.929Z,978.88
2019-01-27T06:27:30.892Z,978.85
2019-01-27T06:28:30.854Z,978.78
2019-01-27T06:29:30.815Z,978.72
2019-01-27T06:30:30.777Z,978.71
2019-01-27T06:31:30.738Z,978.72
2019-01-27T06:32:30.707Z,978.67
2019-01-27T06:33:30.673Z,978.71
2019-01-27T06:34:30.635Z,978.71
2019-01-27T06:35:30.594Z,978.74
2019-01-27T06:36:30.563Z,978.73
2019-01-27T06:37:30.519Z,978.68
2019-01-27T06:38:30.493Z,978.73
2019-01-27T06:39:30.464Z,978.73
2019-01-27T06:40:30.419Z,978.75
2019-01-27T06:41:30.378Z,978.76
2019-01-27T06:42:30.343Z,978.81
2019-01-27T06:43:30.298Z,978.77
2019-01-27T06:44:30.273Z,978.81
2019-01-27T06:45:30.230Z,978.80
2019-01-27T06:46:30.195Z,978.82
2019-01-27T06:47:30.163Z,978.80
2019-01-27T06:48:30.130Z,978.79
2019-01-27T06:49:30.095Z,978.78
2019-01-27T06:50:30.053Z,978.78
2019-01-27T06:51:30.020Z,978.79
2019-01-27T06:52:29.979Z,978.75
2019-01-27T06:53:29.947Z,978.77
2019-01-27T06:54:29.909Z,978.73
2019-01-27T06:55:29.879Z,978.75
2019-01-27T06:56:29.836Z,978.75
2019-01-27T06:57:29.815Z,978.72
2019-01-27T06:58:29.766Z,978.70
2019-01-27T06:59:29.730Z,978.71
2019-01-27T07:00:29.700Z,978.69
2019-01-27T07:01:29.661Z,978.66
2019-01-27T07:02:29.877Z,978.67
2019-01-27T07:03:29.589Z,978.64
2019-01-27T07:04:29.549Z,978.62
2019-01-27T07:05:29.516Z,978.62
2019-01-27T07:06:29.477Z,978.59
2019-01-27T07:07:29.440Z,978.59
2019-01-27T07:08:29.413Z,978.59
2019-01-27T07:09:29.366Z,978.60
2019-01-27T07:10:29.338Z,978.57
2019-01-27T07:11:29.305Z,978.53
2019-01-27T07:12:29.260Z,978.52
2019-01-27T07:13:29.226Z,978.51
2019-01-27T07:14:29.199Z,978.51
2019-01-27T07:15:29.151Z,978.51
2019-01-27T07:16:29.117Z,978.48
2019-01-27T07:17:29.087Z,978.46
2019-01-27T07:18:29.052Z,978.48
2019-01-27T07:19:29.007Z,978.48
2019-01-27T07:20:28.981Z,978.45
2019-01-27T07:21:28.939Z,978.46
2019-01-27T07:22:28.910Z,978.45
2019-01-27T07:23:28.874Z,978.43
2019-01-27T07:24:29.912Z,978.44
2019-01-27T07:25:28.797Z,978.48
2019-01-27T07:26:28.767Z,978.46
2019-01-27T07:27:28.721Z,978.42
2019-01-27T07:28:28.685Z,978.41
2019-01-27T07:29:28.652Z,978.42
2019-01-27T07:30:28.622Z,978.42
2019-01-27T07:31:28.586Z,978.44
2019-01-27T07:32:28.552Z,978.41
2019-01-27T07:33:28.518Z,978.42
2019-01-27T07:34:28.476Z,978.41
2019-01-27T07:35:28.438Z,978.43
2019-01-27T07:36:28.398Z,978.46
2019-01-27T07:37:28.373Z,978.45
2019-01-27T07:38:28.336Z,978.44
2019-01-27T07:39:28.293Z,978.43
2019-01-27T07:40:28.257Z,978.46
2019-01-27T07:41:28.223Z,978.38
2019-01-27T07:42:28.191Z,978.40
2019-01-27T07:43:28.157Z,978.41
2019-01-27T07:44:28.133Z,978.37
2019-01-27T07:45:28.079Z,978.39
2019-01-27T07:46:28.049Z,978.37
2019-01-27T07:47:28.012Z,978.39
2019-01-27T07:48:27.986Z,978.42
2019-01-27T07:49:27.943Z,978.39
2019-01-27T07:50:27.923Z,978.41
2019-01-27T07:51:27.874Z,978.38
2019-01-27T07:52:27.836Z,978.45
2019-01-27T07:53:27.797Z,978.37
2019-01-27T07:54:27.763Z,978.35
2019-01-27T07:55:27.729Z,978.30
2019-01-27T07:56:27.693Z,978.31
2019-01-27T07:57:27.662Z,978.32
2019-01-27T07:58:27.614Z,978.31
2019-01-27T07:59:27.584Z,978.25
2019-01-27T08:00:27.559Z,978.28
2019-01-27T08:01:27.519Z,978.25
2019-01-27T08:02:27.482Z,978.24
2019-01-27T08:03:27.448Z,978.18
2019-01-27T08:04:27.409Z,978.16
2019-01-27T08:05:27.369Z,978.13
2019-01-27T08:06:27.337Z,978.19
2019-01-27T08:07:27.302Z,978.21
2019-01-27T08:08:27.269Z,978.16
2019-01-27T08:09:27.225Z,978.15
2019-01-27T08:10:27.199Z,978.10
2019-01-27T08:11:27.167Z,978.09
2019-01-27T08:12:27.130Z,978.11
2019-01-27T08:13:27.083Z,978.05
2019-01-27T08:14:27.054Z,978.08
2019-01-27T08:15:27.020Z,978.12
2019-01-27T08:16:26.983Z,978.10
2019-01-27T08:17:26.940Z,978.11
2019-01-27T08:18:26.918Z,978.11
2019-01-27T08:19:26.870Z,978.13
2019-01-27T08:20:26.847Z,978.19
2019-01-27T08:21:26.805Z,978.18
2019-01-27T08:22:26.772Z,978.16
2019-01-27T08:23:26.740Z,978.15
2019-01-27T08:24:26.690Z,978.17
2019-01-27T08:25:26.665Z,978.14
2019-01-27T08:26:26.633Z,978.14
2019-01-27T08:27:26.596Z,978.16
2019-01-27T08:28:26.554Z,978.15
2019-01-27T08:29:26.523Z,978.16
2019-01-27T08:30:26.478Z,978.14
2019-01-27T08:31:26.443Z,978.19
2019-01-27T08:32:26.409Z,978.17
2019-01-27T08:33:26.381Z,978.17
2019-01-27T08:34:26.338Z,978.13
2019-01-27T08:35:26.313Z,978.14
2019-01-27T08:36:26.276Z,978.13
2019-01-27T08:37:26.231Z,978.17
2019-01-27T08:38:26.206Z,978.13
2019-01-27T08:39:26.171Z,978.07
2019-01-27T08:40:26.139Z,978.13
2019-01-27T08:41:26.097Z,978.14
2019-01-27T08:42:26.063Z,978.13
2019-01-27T08:43:26.021Z,978.07
2019-01-27T08:44:25.984Z,978.06
2019-01-27T08:45:25.946Z,978.09
2019-01-27T08:46:25.920Z,978.03
2019-01-27T08:47:25.884Z,978.01
2019-01-27T08:48:25.842Z,978.06
2019-01-27T08:49:25.809Z,977.99
2019-01-27T08:50:25.780Z,978.05
2019-01-27T08:51:25.743Z,978.01
2019-01-27T08:52:25.709Z,978.00
2019-01-27T08:53:25.679Z,978.01
2019-01-27T08:54:25.637Z,978.01
2019-01-27T08:55:25.605Z,978.01
2019-01-27T08:56:25.562Z,977.95
2019-01-27T08:57:25.527Z,977.96
2019-01-27T08:58:25.501Z,977.96
2019-01-27T08:59:25.464Z,977.96
2019-01-27T09:00:25.430Z,977.95
2019-01-27T09:01:25.382Z,977.98
2019-01-27T09:02:25.350Z,977.95
2019-01-27T09:03:25.334Z,977.92
2019-01-27T09:04:25.280Z,977.92
2019-01-27T09:05:25.254Z,977.90
2019-01-27T09:06:25.219Z,977.91
2019-01-27T09:07:25.179Z,977.86
2019-01-27T09:08:25.142Z,977.89
2019-01-27T09:09:25.112Z,977.91
2019-01-27T09:10:25.068Z,977.86
2019-01-27T09:11:25.040Z,977.84
2019-01-27T09:12:24.995Z,977.81
2019-01-27T09:13:24.966Z,977.85
2019-01-27T09:14:24.939Z,977.85
2019-01-27T09:15:24.892Z,977.80
2019-01-27T09:16:24.855Z,977.83
2019-01-27T09:17:24.833Z,977.79
2019-01-27T09:18:24.789Z,977.79
2019-01-27T09:19:24.750Z,977.79
2019-01-27T09:20:24.718Z,977.80
2019-01-27T09:21:24.682Z,977.77
2019-01-27T09:22:24.636Z,977.79
2019-01-27T09:23:24.615Z,977.77
2019-01-27T09:24:24.578Z,977.78
2019-01-27T09:25:24.554Z,977.77
2019-01-27T09:26:24.507Z,977.77
2019-01-27T09:27:24.512Z,977.77
2019-01-27T09:28:24.437Z,977.78
2019-01-27T09:29:24.402Z,977.74
2019-01-27T09:30:24.360Z,977.73
2019-01-27T09:31:24.328Z,977.74
2019-01-27T09:32:24.297Z,977.73
2019-01-27T09:33:24.260Z,977.74
2019-01-27T09:34:24.227Z,977.69
2019-01-27T09:35:24.194Z,977.68
2019-01-27T09:36:24.152Z,977.70
2019-01-27T09:37:24.117Z,977.67
2019-01-27T09:38:24.083Z,977.65
2019-01-27T09:39:24.057Z,977.67
2019-01-27T09:40:24.015Z,977.66
2019-01-27T09:41:23.983Z,977.68
2019-01-27T09:42:23.939Z,977.62
2019-01-27T09:43:23.910Z,977.64
2019-01-27T09:44:23.872Z,977.64
2019-01-27T09:45:23.842Z,977.63
2019-01-27T09:46:23.803Z,977.60
2019-01-27T09:47:23.779Z,977.60
2019-01-27T09:48:23.727Z,977.61
2019-01-27T09:49:23.693Z,977.65
2019-01-27T09:50:23.672Z,977.61
2019-01-27T09:51:23.623Z,977.61
2019-01-27T09:52:23.596Z,977.60
2019-01-27T09:53:23.555Z,977.56
2019-01-27T09:54:23.527Z,977.62
2019-01-27T09:55:23.488Z,977.57
2019-01-27T09:56:23.447Z,977.60
2019-01-27T09:57:23.412Z,977.58
2019-01-27T09:58:23.388Z,977.54
2019-01-27T09:59:23.382Z,977.59
2019-01-27T10:00:23.312Z,977.58
2019-01-27T10:01:23.273Z,977.55
2019-01-27T10:02:23.243Z,977.55
2019-01-27T10:03:23.205Z,977.60
2019-01-27T10:04:23.165Z,977.57
2019-01-27T10:05:23.138Z,977.57
2019-01-27T10:06:23.089Z,977.53
2019-01-27T10:07:23.069Z,977.56
2019-01-27T10:08:23.025Z,977.54
2019-01-27T10:09:22.990Z,977.55
2019-01-27T10:10:22.954Z,977.59
2019-01-27T10:11:26.714Z,977.51
2019-01-27T10:12:22.887Z,977.54
2019-01-27T10:13:22.849Z,977.58
2019-01-27T10:14:22.813Z,977.53
2019-01-27T10:15:22.801Z,977.51
2019-01-27T10:16:22.744Z,977.60
2019-01-27T10:17:22.709Z,977.55
2019-01-27T10:18:22.674Z,977.55
2019-01-27T10:19:22.641Z,977.57
2019-01-27T10:20:22.600Z,977.52
2019-01-27T10:21:22.571Z,977.51
2019-01-27T10:22:22.542Z,977.49
2019-01-27T10:23:22.501Z,977.53
2019-01-27T10:24:22.460Z,977.53
2019-01-27T10:25:22.430Z,977.55
2019-01-27T10:26:22.389Z,977.54
2019-01-27T10:27:22.360Z,977.53
2019-01-27T10:28:22.319Z,977.50
2019-01-27T10:29:22.284Z,977.53
2019-01-27T10:30:22.260Z,977.52
2019-01-27T10:31:22.214Z,977.53
2019-01-27T10:32:22.191Z,977.52
2019-01-27T10:33:22.145Z,977.53
2019-01-27T10:34:22.112Z,977.52
2019-01-27T10:35:22.076Z,977.47
2019-01-27T10:36:22.045Z,977.43
2019-01-27T10:37:22.010Z,977.43
2019-01-27T10:38:21.969Z,977.40
2019-01-27T10:39:21.930Z,977.51
2019-01-27T10:40:21.904Z,977.41
2019-01-27T10:41:21.864Z,977.40
2019-01-27T10:42:21.830Z,977.40
2019-01-27T10:43:21.795Z,977.40
2019-01-27T10:44:21.760Z,977.33
2019-01-27T10:45:21.717Z,977.35
2019-01-27T10:46:21.679Z,977.36
2019-01-27T10:47:21.665Z,977.34
2019-01-27T10:48:21.612Z,977.30
2019-01-27T10:49:21.576Z,977.24
2019-01-27T10:50:21.542Z,977.28
2019-01-27T10:51:21.514Z,977.27
2019-01-27T10:52:21.475Z,977.28
2019-01-27T10:53:21.443Z,977.26
2019-01-27T10:54:21.397Z,977.29
2019-01-27T10:55:21.371Z,977.32
2019-01-27T10:56:21.337Z,977.24
2019-01-27T10:57:21.305Z,977.29
2019-01-27T10:58:21.257Z,977.28
2019-01-27T10:59:21.230Z,977.24
2019-01-27T11:00:21.193Z,977.23
2019-01-27T11:01:21.163Z,977.24
2019-01-27T11:02:21.118Z,977.25
2019-01-27T11:03:21.081Z,977.20
2019-01-27T11:04:21.085Z,977.19
2019-01-27T11:05:21.016Z,977.19
2019-01-27T11:06:20.985Z,977.24
2019-01-27T11:07:20.939Z,977.21
2019-01-27T11:08:20.908Z,977.19
2019-01-27T11:09:20.869Z,977.19
2019-01-27T11:10:20.848Z,977.17
2019-01-27T11:11:20.802Z,977.15
2019-01-27T11:12:20.780Z,977.20
2019-01-27T11:13:20.736Z,977.19
2019-01-27T11:14:20.696Z,977.15
2019-01-27T11:15:20.662Z,977.11
2019-01-27T11:16:20.618Z,977.10
2019-01-27T11:17:20.598Z,977.11
2019-01-27T11:18:20.557Z,977.11
2019-01-27T11:19:20.518Z,977.10
2019-01-27T11:20:20.491Z,977.06
2019-01-27T11:21:20.458Z,977.11
2019-01-27T11:22:20.421Z,977.02
2019-01-27T11:23:20.379Z,977.08
2019-01-27T11:24:20.343Z,977.05
2019-01-27T11:25:20.316Z,977.08
2019-01-27T11:26:20.273Z,977.04
2019-01-27T11:27:20.247Z,977.05
2019-01-27T11:28:20.208Z,977.09
2019-01-27T11:29:20.174Z,977.06
2019-01-27T11:30:20.136Z,977.03
2019-01-27T11:31:20.103Z,977.04
2019-01-27T11:32:20.063Z,977.02
2019-01-27T11:33:20.060Z,977.00
2019-01-27T11:34:20.003Z,976.98
2019-01-27T11:35:19.963Z,976.97
2019-01-27T11:36:19.931Z,977.02
2019-01-27T11:37:19.890Z,977.01
2019-01-27T11:38:19.864Z,977.01
2019-01-27T11:39:19.825Z,976.99
2019-01-27T11:40:19.802Z,976.95
2019-01-27T11:41:19.757Z,976.91
2019-01-27T11:42:19.723Z,976.93
2019-01-27T11:43:19.693Z,976.96
2019-01-27T11:44:19.658Z,976.96
2019-01-27T11:45:19.607Z,976.88
2019-01-27T11:46:19.582Z,976.91
2019-01-27T11:47:19.583Z,976.91
2019-01-27T11:48:19.515Z,976.85
2019-01-27T11:49:19.481Z,976.91
2019-01-27T11:50:19.445Z,976.88
2019-01-27T11:51:19.414Z,976.91
2019-01-27T11:52:19.373Z,976.86
2019-01-27T11:53:19.348Z,976.85
2019-01-27T11:54:19.304Z,976.90
2019-01-27T11:55:19.265Z,976.91
2019-01-27T11:56:19.230Z,976.88
2019-01-27T11:57:19.189Z,976.84
2019-01-27T11:58:19.170Z,976.88
2019-01-27T11:59:19.134Z,976.81
2019-01-27T12:00:19.095Z,976.81
2019-01-27T12:01:19.055Z,976.80
2019-01-27T12:02:19.019Z,976.83
2019-01-27T12:03:18.988Z,976.81
2019-01-27T12:04:18.944Z,976.82
2019-01-27T12:05:18.920Z,976.82
2019-01-27T12:06:18.897Z,976.77
2019-01-27T12:07:18.857Z,976.73
2019-01-27T12:08:18.811Z,976.75
2019-01-27T12:09:18.780Z,976.71
2019-01-27T12:10:18.748Z,976.75
2019-01-27T12:11:18.713Z,976.72
2019-01-27T12:12:18.679Z,976.75
2019-01-27T12:13:18.640Z,976.67
2019-01-27T12:14:18.604Z,976.70
2019-01-27T12:15:18.579Z,976.67
2019-01-27T12:16:18.545Z,976.67
2019-01-27T12:17:18.506Z,976.65
2019-01-27T12:18:18.469Z,976.64
2019-01-27T12:19:18.436Z,976.64
2019-01-27T12:20:18.400Z,976.67
2019-01-27T12:21:18.360Z,976.66
2019-01-27T12:22:18.335Z,976.64
2019-01-27T12:23:18.296Z,976.57
2019-01-27T12:24:18.261Z,976.64
2019-01-27T12:25:18.232Z,976.63
2019-01-27T12:26:18.211Z,976.61
2019-01-27T12:27:18.161Z,976.61
2019-01-27T12:28:18.121Z,976.61
2019-01-27T12:29:18.091Z,976.54